Time;durP1;ratioP1;P1;durP2;ratioP2;P2;SDS_P1;SDS_P2;PMS_P1;PMS_P2;Temp;Humidity;BMP_temperature;BMP_pressure;BME280_temperature;BME280_humidity;BME280_pressure;Samples;Min_cycle;Max_cycle;Signal;HPM_P1;HPM_P2
2022/03/25 00:01:54;;;;;;;10.85;8.00;;;;;;;17.23;29.24;94165.84;4893561;29;20040;-91
2022/03/25 00:04:19;;;;;;;10.80;8.20;;;;;;;17.23;29.04;94151.41;4895121;29;20068;-91
2022/03/25 00:06:45;;;;;;;9.48;7.93;;;;;;;17.25;28.85;94157.91;4913193;29;20032;-91
2022/03/25 00:09:10;;;;;;;9.82;7.70;;;;;;;17.25;29.29;94162.63;4912017;29;20033;-89
2022/03/25 00:11:35;;;;;;;10.98;8.20;;;;;;;17.22;28.87;94156.13;4894213;29;20044;-89
2022/03/25 00:14:02;;;;;;;11.55;8.40;;;;;;;17.23;29.46;94167.81;4895192;29;20084;-90
2022/03/25 00:16:28;;;;;;;11.13;7.95;;;;;;;17.20;29.20;94155.13;4908472;29;20043;-91
2022/03/25 00:18:57;;;;;;;10.20;7.40;;;;;;;17.21;29.30;94160.09;4910115;29;20044;-90
2022/03/25 00:21:24;;;;;;;10.55;7.60;;;;;;;17.22;28.96;94158.88;4895796;29;20036;-91
2022/03/25 00:23:50;;;;;;;10.55;7.93;;;;;;;17.22;28.87;94158.88;4928545;29;20055;-91
2022/03/25 00:26:15;;;;;;;9.80;8.07;;;;;;;17.23;29.23;94154.16;4908253;29;20040;-91
2022/03/25 00:28:42;;;;;;;9.40;7.60;;;;;;;17.22;29.17;94152.66;4910297;29;20037;-90
2022/03/25 00:31:08;;;;;;;10.55;7.90;;;;;;;17.19;29.40;94134.50;4894978;29;20051;-88
2022/03/25 00:33:36;;;;;;;9.60;7.57;;;;;;;17.19;29.01;94150.88;4910264;29;20037;-92
2022/03/25 00:36:01;;;;;;;11.23;8.27;;;;;;;17.19;29.30;94145.41;4894740;29;20043;-92
2022/03/25 00:38:27;;;;;;;11.80;7.88;;;;;;;17.20;29.23;94146.91;4877273;29;20048;-90
2022/03/25 00:40:53;;;;;;;9.48;7.22;;;;;;;17.18;29.02;94149.38;4929632;29;20051;-88
2022/03/25 00:43:20;;;;;;;9.63;7.65;;;;;;;17.17;29.17;94137.72;4929290;29;20040;-90
2022/03/25 00:45:46;;;;;;;10.55;7.80;;;;;;;17.20;28.75;94142.22;4912543;29;20032;-89
2022/03/25 00:48:12;;;;;;;10.65;7.47;;;;;;;17.17;29.26;94140.44;4912317;29;20044;-91
2022/03/25 00:50:44;;;;;;;10.80;7.72;;;;;;;17.18;29.24;94147.41;4913010;29;20047;-91
2022/03/25 00:53:10;;;;;;;8.70;7.05;;;;;;;17.18;29.30;94141.19;4929240;29;20044;-91
2022/03/25 00:55:37;;;;;;;10.60;7.55;;;;;;;17.17;29.20;94134.97;4914492;29;20073;-91
2022/03/25 00:58:03;;;;;;;12.00;8.57;;;;;;;17.17;29.15;94134.22;4929389;29;20044;-89
2022/03/25 01:00:30;;;;;;;9.77;6.88;;;;;;;17.16;29.12;94132.72;4930651;29;20368;-90
2022/03/25 01:02:55;;;;;;;9.43;6.78;;;;;;;17.16;29.35;94128.00;4927408;29;20032;-89
2022/03/25 01:05:20;;;;;;;9.70;7.60;;;;;;;17.16;29.35;94130.75;4914259;29;20040;-91
2022/03/25 01:07:47;;;;;;;11.18;7.78;;;;;;;17.17;28.80;94131.50;4914505;29;20032;-91
2022/03/25 01:10:13;;;;;;;9.10;7.70;;;;;;;17.16;28.87;94128.00;4910885;29;20036;-89
2022/03/25 01:12:38;;;;;;;11.07;8.32;;;;;;;17.18;28.88;94131.00;4912261;29;20448;-91
2022/03/25 01:15:04;;;;;;;10.02;7.32;;;;;;;17.14;29.09;94135.94;4940825;29;20042;-91
2022/03/25 01:17:30;;;;;;;9.43;6.82;;;;;;;17.13;29.03;94129.72;4926039;29;20096;-92
2022/03/25 01:19:56;;;;;;;9.45;7.50;;;;;;;17.14;29.71;94135.94;4911784;29;20107;-91
2022/03/25 01:22:22;;;;;;;10.93;7.65;;;;;;;17.16;29.02;94133.47;4910590;29;20048;-91
2022/03/25 01:24:48;;;;;;;11.93;7.72;;;;;;;17.14;29.13;94128.50;4925988;29;20036;-92
2022/03/25 01:27:14;;;;;;;11.00;7.82;;;;;;;17.17;29.26;94126.03;4907485;29;20069;-89
2022/03/25 01:29:39;;;;;;;11.05;6.97;;;;;;;17.16;29.12;94127.25;4911238;29;20044;-91
2022/03/25 01:32:07;;;;;;;11.60;7.80;;;;;;;17.15;28.94;94129.25;4927252;29;20054;-89
2022/03/25 01:34:35;;;;;;;10.98;7.60;;;;;;;17.11;28.91;94129.47;4944087;29;20047;-90
2022/03/25 01:37:01;;;;;;;10.48;7.85;;;;;;;17.11;29.28;94126.72;4915363;29;20096;-91
2022/03/25 01:39:27;;;;;;;11.13;7.10;;;;;;;17.11;29.17;94120.53;4909463;29;20052;-91
2022/03/25 01:41:52;;;;;;;11.77;8.20;;;;;;;17.12;28.84;94130.22;4909890;29;20036;-89
2022/03/25 01:44:28;;;;;;;10.57;6.90;;;;;;;17.12;28.78;94125.50;4924823;29;20077;-90
2022/03/25 01:46:54;;;;;;;11.02;7.70;;;;;;;17.11;28.83;94128.72;4912289;29;20043;-90
2022/03/25 01:49:20;;;;;;;9.38;6.70;;;;;;;17.09;29.49;94140.16;4913518;29;20045;-91
2022/03/25 01:51:51;;;;;;;10.23;8.18;;;;;;;17.09;29.31;94123.00;4924700;29;20087;-89
2022/03/25 01:54:18;;;;;;;9.52;7.32;;;;;;;17.11;29.21;94137.66;4910666;29;20048;-88
2022/03/25 01:56:44;;;;;;;8.68;6.45;;;;;;;17.09;29.35;94137.41;4931044;29;20040;-91
2022/03/25 01:59:10;;;;;;;10.27;7.30;;;;;;;17.11;28.78;94128.72;4929546;29;20040;-90
2022/03/25 02:01:40;;;;;;;10.23;7.53;;;;;;;17.11;29.02;94128.72;4913849;29;20564;-89
2022/03/25 02:04:06;;;;;;;9.65;7.30;;;;;;;17.08;29.12;94124.25;4930176;29;20044;-90
2022/03/25 02:06:32;;;;;;;9.65;7.22;;;;;;;17.10;28.90;94124.50;4918377;29;20024;-91
2022/03/25 02:08:58;;;;;;;9.32;7.18;;;;;;;17.09;29.07;94117.53;4916140;29;20059;-91
2022/03/25 02:11:23;;;;;;;10.70;6.68;;;;;;;17.09;29.20;94123.75;4930006;29;20052;-91
2022/03/25 02:13:51;;;;;;;8.93;6.60;;;;;;;17.10;29.24;94121.78;4930743;29;20032;-88
2022/03/25 02:16:18;;;;;;;9.25;7.07;;;;;;;17.09;29.05;94117.53;4929259;29;20040;-91
2022/03/25 02:18:43;;;;;;;10.10;7.35;;;;;;;17.09;28.63;94123.00;4914147;29;20055;-91
2022/03/25 02:21:08;;;;;;;9.57;7.35;;;;;;;17.10;28.83;94125.22;4914860;29;20044;-89
2022/03/25 02:23:34;;;;;;;9.52;7.50;;;;;;;17.07;28.89;94120.75;4915647;29;20072;-90
2022/03/25 02:25:59;;;;;;;10.82;7.65;;;;;;;17.06;28.88;94124.72;4914768;29;20091;-90
2022/03/25 02:28:26;;;;;;;8.95;7.13;;;;;;;17.07;28.82;94125.47;4914672;29;20042;-91
2022/03/25 02:30:52;;;;;;;8.63;6.57;;;;;;;17.07;28.90;94120.00;4933633;29;20040;-92
2022/03/25 02:33:27;;;;;;;12.15;7.45;;;;;;;17.08;29.03;94118.78;4930023;29;20039;-89
2022/03/25 02:35:59;;;;;;;9.43;7.15;;;;;;;17.09;29.03;94123.75;4915862;29;20028;-91
2022/03/25 02:38:24;;;;;;;9.73;7.15;;;;;;;17.06;28.97;94124.72;4916714;29;20040;-92
2022/03/25 02:40:50;;;;;;;10.57;7.22;;;;;;;17.09;28.78;94126.50;4901737;29;20393;-91
2022/03/25 02:43:17;;;;;;;10.95;7.15;;;;;;;17.06;28.85;94132.91;4931731;29;20051;-90
2022/03/25 02:45:42;;;;;;;10.27;7.22;;;;;;;17.03;29.09;94128.41;4916368;29;20040;-90
2022/03/25 02:48:08;;;;;;;10.48;7.13;;;;;;;17.04;29.14;94121.72;4930801;29;20043;-90
2022/03/25 02:50:34;;;;;;;9.93;6.97;;;;;;;17.05;28.75;94122.47;4932132;29;20064;-89
2022/03/25 02:53:08;;;;;;;12.45;7.72;;;;;;;17.05;28.99;94125.22;4931582;29;20044;-90
2022/03/25 02:55:42;;;;;;;9.38;7.00;;;;;;;17.04;29.12;94123.72;4931801;29;20040;-91
2022/03/25 02:58:20;;;;;;;11.27;7.82;;;;;;;17.04;28.68;94126.44;4930352;29;20063;-89
2022/03/25 03:00:46;;;;;;;9.00;6.80;;;;;;;17.00;29.46;94121.19;4916720;29;20040;-91
2022/03/25 03:03:13;;;;;;;9.38;6.78;;;;;;;17.02;29.08;94117.97;4931106;29;20056;-89
2022/03/25 03:05:40;;;;;;;10.85;6.85;;;;;;;17.02;29.03;94121.47;4931964;29;20039;-90
2022/03/25 03:08:15;;;;;;;10.45;7.85;;;;;;;17.03;29.03;94120.22;4915588;29;20052;-91
2022/03/25 03:10:42;;;;;;;9.35;6.82;;;;;;;17.03;28.96;94109.31;4931062;29;20036;-91
2022/03/25 03:13:09;;;;;;;9.48;6.88;;;;;;;17.01;28.92;94121.94;4898480;29;20058;-91
2022/03/25 03:15:34;;;;;;;10.65;7.20;;;;;;;16.99;28.98;94111.50;4915033;29;20044;-91
2022/03/25 03:18:02;;;;;;;10.40;6.97;;;;;;;17.00;28.99;94115.72;4913134;29;20040;-90
2022/03/25 03:20:27;;;;;;;9.63;6.90;;;;;;;17.05;28.72;94112.31;4913455;29;20047;-91
2022/03/25 03:22:56;;;;;;;10.50;7.32;;;;;;;17.03;28.66;94114.00;4894366;29;20041;-90
2022/03/25 03:25:21;;;;;;;9.90;7.18;;;;;;;17.00;28.67;94112.25;4890819;29;20041;-92
2022/03/25 03:27:47;;;;;;;9.93;6.82;;;;;;;16.98;28.77;94106.53;4889032;29;20033;-89
2022/03/25 03:30:12;;;;;;;8.50;6.35;;;;;;;16.98;29.02;94118.19;4892020;29;20044;-91
2022/03/25 03:32:38;;;;;;;11.30;7.57;;;;;;;17.00;28.80;94110.25;4891997;29;20051;-92
2022/03/25 03:35:05;;;;;;;9.43;6.97;;;;;;;17.00;28.68;94110.25;4893889;29;20047;-90
2022/03/25 03:37:30;;;;;;;8.70;6.40;;;;;;;16.99;29.24;94108.75;4894701;29;20069;-90
2022/03/25 03:39:55;;;;;;;8.45;6.60;;;;;;;16.98;29.06;94104.53;4923047;29;20044;-91
2022/03/25 03:42:21;;;;;;;11.25;7.45;;;;;;;16.99;28.88;94110.75;4910284;29;21874;-91
2022/03/25 03:44:47;;;;;;;10.27;7.10;;;;;;;16.97;28.84;94100.31;4926115;29;20090;-90
2022/03/25 03:47:14;;;;;;;8.63;6.15;;;;;;;16.96;28.84;94103.53;4924754;29;20534;-91
2022/03/25 03:50:03;;;;;;;11.15;6.63;;;;;;;16.99;28.89;94114.22;4911517;29;20040;-91
2022/03/25 03:52:29;;;;;;;10.82;7.43;;;;;;;16.98;29.12;94107.25;4905839;29;20067;-90
2022/03/25 03:54:54;;;;;;;8.55;6.53;;;;;;;16.97;29.24;94108.50;4892728;29;20041;-91
2022/03/25 03:57:20;;;;;;;10.93;7.30;;;;;;;16.96;28.89;94107.00;4891031;29;20049;-91
2022/03/25 03:59:45;;;;;;;12.02;7.07;;;;;;;16.96;29.40;94098.81;4892265;29;20044;-90
2022/03/25 04:02:11;;;;;;;11.80;7.15;;;;;;;16.96;28.75;94098.81;4904513;29;20040;-90
2022/03/25 04:04:36;;;;;;;10.15;6.97;;;;;;;16.96;28.88;94101.53;4905675;29;20037;-90
2022/03/25 04:07:02;;;;;;;9.07;6.57;;;;;;;16.95;28.77;94096.56;4907635;29;20096;-89
2022/03/25 04:09:27;;;;;;;11.18;6.93;;;;;;;16.95;29.10;94097.31;4906173;29;20068;-90
2022/03/25 04:11:53;;;;;;;9.20;7.10;;;;;;;16.95;29.20;94093.81;4907231;29;20113;-91
2022/03/25 04:14:28;;;;;;;10.32;6.68;;;;;;;16.98;28.92;94090.88;4891826;29;20045;-91
2022/03/25 04:16:53;;;;;;;9.00;7.03;;;;;;;16.96;29.01;94109.72;4891270;29;20540;-90
2022/03/25 04:19:21;;;;;;;10.65;7.43;;;;;;;16.95;28.80;94100.03;4906422;29;20051;-90
2022/03/25 04:21:46;;;;;;;9.48;7.63;;;;;;;16.95;28.69;94099.28;4907962;29;20041;-89
2022/03/25 04:24:11;;;;;;;10.07;6.68;;;;;;;16.95;28.81;94094.56;4906525;29;20048;-91
2022/03/25 04:26:37;;;;;;;8.38;6.55;;;;;;;16.93;28.82;94096.28;4924191;29;20436;-91
2022/03/25 04:29:02;;;;;;;11.93;6.90;;;;;;;16.95;28.96;94096.56;4926181;29;20040;-90
2022/03/25 04:31:28;;;;;;;10.82;7.25;;;;;;;16.95;28.87;94099.28;4911468;29;20045;-91
2022/03/25 04:33:53;;;;;;;9.15;6.25;;;;;;;16.93;28.91;94099.03;4927795;29;20048;-90
2022/03/25 04:36:28;;;;;;;9.30;6.90;;;;;;;16.93;28.98;94099.78;4928355;29;20044;-91
2022/03/25 04:38:53;;;;;;;7.60;6.20;;;;;;;16.94;28.96;94104.00;4929927;29;20032;-89
2022/03/25 04:41:18;;;;;;;9.00;6.70;;;;;;;16.93;28.69;94101.75;4928828;29;20040;-91
2022/03/25 04:43:44;;;;;;;10.02;6.93;;;;;;;16.94;28.92;94100.53;4923868;29;20069;-90
2022/03/25 04:46:09;;;;;;;9.65;6.40;;;;;;;16.90;29.03;94102.72;4894401;29;20051;-91
2022/03/25 04:48:35;;;;;;;10.35;6.78;;;;;;;16.92;29.22;94105.72;4910752;29;20040;-91
2022/03/25 04:51:00;;;;;;;9.30;6.50;;;;;;;16.92;28.95;94102.97;4894920;29;20560;-90
2022/03/25 04:53:26;;;;;;;8.60;6.60;;;;;;;16.92;28.72;94102.97;4910856;29;20043;-91
2022/03/25 04:55:53;;;;;;;9.32;6.93;;;;;;;16.92;28.91;94101.00;4895515;29;20037;-91
2022/03/25 04:58:19;;;;;;;9.35;6.63;;;;;;;16.92;28.97;94108.44;4891471;29;20048;-89
2022/03/25 05:00:44;;;;;;;15.23;8.52;;;;;;;16.86;27.96;94111.16;4911626;29;20036;-90
2022/03/25 05:03:10;;;;;;;20.98;14.45;;;;;;;16.75;26.47;94105.56;4905379;29;20050;-89
2022/03/25 05:05:37;;;;;;;30.52;18.50;;;;;;;16.67;25.63;94107.97;4910585;29;20055;-89
2022/03/25 05:08:02;;;;;;;32.63;19.45;;;;;;;16.60;25.39;94107.66;4913556;29;20052;-90
2022/03/25 05:10:28;;;;;;;37.70;20.15;;;;;;;16.46;24.67;94106.50;4916046;29;20127;-90
2022/03/25 05:12:53;;;;;;;49.47;19.83;;;;;;;16.48;25.40;94114.97;4896177;29;20048;-90
2022/03/25 05:15:19;;;;;;;48.55;22.58;;;;;;;16.36;24.86;94110.63;4904126;29;20055;-88
2022/03/25 05:17:51;;;;;;;37.08;22.20;;;;;;;16.32;24.83;94113.56;4894763;29;20416;-89
2022/03/25 05:20:19;;;;;;;43.08;21.77;;;;;;;16.20;24.90;94108.47;4894665;29;20048;-89
2022/03/25 05:22:45;;;;;;;31.95;21.05;;;;;;;16.11;24.73;94109.38;4904186;29;20504;-88
2022/03/25 05:25:11;;;;;;;39.20;22.42;;;;;;;16.05;24.20;94122.94;4873590;29;20041;-90
2022/03/25 05:27:49;;;;;;;34.30;22.63;;;;;;;16.03;24.66;94119.19;4905326;29;20036;-89
2022/03/25 05:30:16;;;;;;;40.25;22.08;;;;;;;15.97;24.74;94115.66;4912886;29;20519;-89
2022/03/25 05:32:42;;;;;;;36.03;21.40;;;;;;;15.95;24.32;94121.59;4913349;29;20035;-89
2022/03/25 05:35:09;;;;;;;37.42;22.92;;;;;;;15.86;24.61;94121.72;4897288;29;20530;-89
2022/03/25 05:37:35;;;;;;;42.40;21.98;;;;;;;15.84;24.76;94123.41;4907629;29;20553;-88
2022/03/25 05:40:01;;;;;;;68.97;23.10;;;;;;;15.83;24.86;94124.63;4923690;29;20055;-91
2022/03/25 05:42:29;;;;;;;39.22;21.20;;;;;;;15.80;24.92;94128.34;4920546;29;20052;-90
2022/03/25 05:44:54;;;;;;;42.53;22.20;;;;;;;15.75;24.82;94127.03;4921426;29;20104;-90
2022/03/25 05:47:20;;;;;;;36.92;21.73;;;;;;;15.71;25.28;94134.66;4889254;29;20056;-90
2022/03/25 05:49:46;;;;;;;33.92;22.08;;;;;;;15.74;25.40;94137.19;4904503;29;20047;-90
2022/03/25 05:52:12;;;;;;;37.53;21.73;;;;;;;15.76;25.20;94131.25;4886267;29;20036;-92
2022/03/25 05:54:37;;;;;;;42.10;19.65;;;;;;;15.83;25.62;94128.13;4881295;29;20527;-89
2022/03/25 05:57:03;;;;;;;30.73;19.40;;;;;;;15.90;25.27;94133.16;4896583;29;20052;-88
2022/03/25 05:59:29;;;;;;;34.42;20.50;;;;;;;15.96;25.64;94136.72;4912576;29;20046;-90
2022/03/25 06:01:54;;;;;;;32.53;19.25;;;;;;;16.01;25.49;94141.50;4882235;29;20055;-88
2022/03/25 06:04:20;;;;;;;35.30;19.90;;;;;;;16.10;26.12;94146.06;4896456;29;20055;-90
2022/03/25 06:06:45;;;;;;;29.42;19.15;;;;;;;16.16;25.30;94140.66;4897046;29;20033;-90
2022/03/25 06:09:10;;;;;;;28.08;17.88;;;;;;;16.21;25.51;94138.00;4912851;29;20432;-90
2022/03/25 06:11:37;;;;;;;27.10;17.67;;;;;;;16.24;25.96;94147.94;4913009;29;20067;-92
2022/03/25 06:14:04;;;;;;;30.38;17.25;;;;;;;16.30;26.17;94148.00;4896943;29;20092;-90
2022/03/25 06:16:29;;;;;;;31.55;16.55;;;;;;;16.32;26.30;94151.00;4881962;29;20040;-92
2022/03/25 06:18:55;;;;;;;36.08;18.20;;;;;;;16.39;25.64;94139.69;4913563;29;20040;-90
2022/03/25 06:21:21;;;;;;;22.73;15.02;;;;;;;16.39;26.00;94140.44;4911838;29;20052;-90
2022/03/25 06:23:46;;;;;;;27.45;17.95;;;;;;;16.43;26.12;94146.44;4881290;29;20066;-91
2022/03/25 06:26:12;;;;;;;23.02;15.73;;;;;;;16.45;26.70;94143.25;4896716;29;20040;-91
2022/03/25 06:28:37;;;;;;;172.77;40.70;;;;;;;16.47;26.40;94138.03;4882420;29;20048;-88
2022/03/25 06:31:03;;;;;;;895.13;215.52;;;;;;;16.52;26.32;94144.78;4897856;29;20405;-90
2022/03/25 06:33:28;;;;;;;604.00;122.57;;;;;;;16.53;26.39;94143.56;4896429;29;20527;-90
2022/03/25 06:35:55;;;;;;;538.92;105.63;;;;;;;16.56;26.09;94142.59;4911523;29;20040;-90
2022/03/25 06:38:21;;;;;;;621.47;130.50;;;;;;;16.61;26.27;94150.09;4896581;29;20086;-91
2022/03/25 06:40:46;;;;;;;506.30;94.80;;;;;;;16.59;26.86;94144.38;4911794;29;20036;-88
2022/03/25 06:43:12;;;;;;;287.23;56.88;;;;;;;16.62;26.23;94143.41;4911623;29;20040;-91
2022/03/25 06:45:37;;;;;;;208.88;44.03;;;;;;;16.67;26.59;94143.47;4911516;29;20040;-90
2022/03/25 06:48:03;;;;;;;198.30;38.35;;;;;;;16.66;26.78;94150.19;4896250;29;20765;-89
2022/03/25 06:50:28;;;;;;;131.90;36.20;;;;;;;16.68;27.03;94146.94;4880198;29;20036;-89
2022/03/25 06:52:54;;;;;;;133.70;33.55;;;;;;;16.71;26.50;94148.72;4896558;29;20048;-90
2022/03/25 06:55:20;;;;;;;144.55;34.50;;;;;;;16.72;26.62;94150.97;4896169;29;20396;-90
2022/03/25 06:57:47;;;;;;;98.78;29.27;;;;;;;16.74;27.12;94156.69;4911612;29;20262;-89
2022/03/25 07:00:13;;;;;;;95.35;30.00;;;;;;;16.77;27.20;94155.00;4911702;29;20040;-91
2022/03/25 07:02:40;;;;;;;90.03;26.30;;;;;;;16.81;26.46;94158.25;4912659;29;20241;-90
2022/03/25 07:05:06;;;;;;;78.00;24.73;;;;;;;16.82;26.45;94159.00;4896297;29;20036;-89
2022/03/25 07:07:34;;;;;;;85.30;24.38;;;;;;;16.82;26.59;94159.75;4895650;29;20128;-90
2022/03/25 07:09:59;;;;;;;73.75;24.02;;;;;;;16.84;27.12;94159.28;4881334;29;20076;-90
2022/03/25 07:12:25;;;;;;;64.10;24.52;;;;;;;16.85;26.98;94153.34;4911560;29;20354;-89
2022/03/25 07:14:50;;;;;;;77.88;21.75;;;;;;;16.87;27.48;94167.28;4895697;29;20055;-90
2022/03/25 07:17:16;;;;;;;73.18;25.10;;;;;;;16.91;26.90;94164.28;4910789;29;20036;-90
2022/03/25 07:19:41;;;;;;;74.25;24.85;;;;;;;16.92;27.03;94171.25;4895748;29;20363;-90
2022/03/25 07:22:06;;;;;;;69.38;24.52;;;;;;;16.92;27.02;94166.53;4895557;29;20041;-89
2022/03/25 07:24:32;;;;;;;92.35;47.30;;;;;;;16.93;27.26;94168.06;4911626;29;20511;-88
2022/03/25 07:26:57;;;;;;;65.32;28.13;;;;;;;16.97;27.51;94170.56;4895353;29;20048;-90
2022/03/25 07:29:22;;;;;;;47.03;21.67;;;;;;;16.97;26.76;94170.56;4910740;29;20044;-90
2022/03/25 07:31:48;;;;;;;58.25;20.45;;;;;;;16.98;27.21;94166.59;4879839;29;20028;-91
2022/03/25 07:34:14;;;;;;;56.70;19.27;;;;;;;17.01;27.17;94171.09;4911388;29;20419;-89
2022/03/25 07:36:39;;;;;;;41.45;17.77;;;;;;;17.00;27.25;94183.25;4895706;29;20036;-90
2022/03/25 07:39:05;;;;;;;36.97;17.10;;;;;;;17.03;27.30;94180.31;4894989;29;20044;-89
2022/03/25 07:41:30;;;;;;;35.78;18.80;;;;;;;17.05;27.15;94179.84;4911011;29;20036;-91
2022/03/25 07:43:56;;;;;;;33.42;15.55;;;;;;;17.06;27.64;94170.41;4911192;29;20040;-89
2022/03/25 07:46:25;;;;;;;43.17;17.63;;;;;;;17.07;27.63;94171.91;4894694;29;22325;-91
2022/03/25 07:48:51;;;;;;;33.40;14.95;;;;;;;17.10;27.03;94170.94;4896327;29;20566;-91
2022/03/25 07:51:16;;;;;;;82.10;21.40;;;;;;;17.10;27.90;94168.94;4910479;29;20036;-90
2022/03/25 07:53:42;;;;;;;54.83;17.45;;;;;;;17.11;27.48;94177.88;4895133;29;20040;-90
2022/03/25 07:56:07;;;;;;;52.70;15.23;;;;;;;17.16;27.67;94173.72;4894736;29;20047;-90
2022/03/25 07:58:33;;;;;;;52.10;16.15;;;;;;;17.14;28.45;94169.47;4880293;29;20036;-89
2022/03/25 08:00:58;;;;;;;33.92;13.18;;;;;;;17.16;27.98;94173.72;4895968;29;20495;-89
2022/03/25 08:03:23;;;;;;;29.92;12.48;;;;;;;17.19;28.09;94170.75;4895515;29;20040;-90
2022/03/25 08:05:50;;;;;;;33.78;12.52;;;;;;;17.18;28.36;94173.97;4880089;29;20407;-88
2022/03/25 08:08:18;;;;;;;32.97;12.77;;;;;;;17.21;29.06;94171.03;4895565;29;20059;-89
2022/03/25 08:10:43;;;;;;;29.40;12.20;;;;;;;17.23;28.77;94173.28;4896063;29;20064;-92
2022/03/25 08:13:10;;;;;;;24.65;11.68;;;;;;;17.21;28.14;94176.50;4893999;29;20044;-88
2022/03/25 08:15:36;;;;;;;26.23;12.27;;;;;;;17.20;28.78;94180.47;4910977;29;20110;-87
2022/03/25 08:18:03;;;;;;;26.73;11.88;;;;;;;17.28;28.24;94183.50;4912034;29;20052;-89
2022/03/25 08:20:33;;;;;;;32.90;12.25;;;;;;;17.27;28.46;94182.00;4895863;29;20046;-90
2022/03/25 08:23:00;;;;;;;31.90;12.18;;;;;;;17.29;28.21;94182.28;4912053;29;20057;-91
2022/03/25 08:28:09;;;;;;;38.75;11.43;;;;;;;17.28;28.63;94187.00;4911387;29;20042;-90
2022/03/25 08:30:35;;;;;;;23.05;9.20;;;;;;;17.28;28.90;94187.00;4895652;29;20403;-90
2022/03/25 08:33:01;;;;;;;26.02;10.90;;;;;;;17.30;27.97;94190.00;4911431;29;20040;-90
2022/03/25 08:35:27;;;;;;;21.17;8.95;;;;;;;17.32;27.92;94184.78;4894434;29;20104;-88
2022/03/25 08:37:53;;;;;;;21.20;9.45;;;;;;;17.31;27.71;94177.09;4911161;29;20055;-93
2022/03/25 08:40:20;;;;;;;18.02;8.50;;;;;;;17.30;27.98;94175.59;4894961;29;20706;-91
2022/03/25 08:42:45;;;;;;;18.95;8.70;;;;;;;17.34;28.53;94178.81;4895543;29;20495;-91
2022/03/25 08:45:13;;;;;;;22.08;9.02;;;;;;;17.33;28.12;94185.53;4908732;29;20044;-90
2022/03/25 08:47:39;;;;;;;18.00;8.23;;;;;;;17.35;27.99;94185.78;4879899;29;20731;-91
2022/03/25 08:50:05;;;;;;;23.08;8.82;;;;;;;17.35;28.12;94177.59;4863606;29;20047;-89
2022/03/25 08:52:30;;;;;;;16.30;7.93;;;;;;;17.35;28.51;94185.78;4879195;29;20032;-91
2022/03/25 08:54:56;;;;;;;15.80;7.78;;;;;;;17.35;28.23;94186.53;4863902;29;20044;-90
2022/03/25 08:57:21;;;;;;;14.77;8.15;;;;;;;17.34;28.09;94189.75;4879372;29;20036;-90
2022/03/25 08:59:48;;;;;;;17.13;8.15;;;;;;;17.36;28.55;94185.31;4866969;29;20066;-90
2022/03/25 09:02:14;;;;;;;10.40;6.63;;;;;;;17.37;28.62;94181.34;4867299;29;20052;-92
2022/03/25 09:04:39;;;;;;;17.38;7.30;;;;;;;17.38;28.36;94182.09;4859513;29;20041;-90
2022/03/25 09:07:04;;;;;;;11.82;7.65;;;;;;;17.37;28.37;94178.59;4844245;29;20044;-90
2022/03/25 09:09:30;;;;;;;10.93;6.40;;;;;;;17.37;28.50;94183.31;4843944;29;20120;-91
2022/03/25 09:11:56;;;;;;;9.93;6.20;;;;;;;17.39;28.10;94189.06;4844430;29;20301;-92
2022/03/25 09:14:21;;;;;;;16.20;6.57;;;;;;;17.36;29.14;94198.97;4844053;29;21029;-90
2022/03/25 09:16:47;;;;;;;13.35;6.90;;;;;;;17.36;27.65;94192.75;4833153;29;20033;-90
2022/03/25 09:19:12;;;;;;;9.23;6.18;;;;;;;17.36;28.42;94190.03;4871961;29;20126;-90
2022/03/25 09:21:38;;;;;;;12.10;6.47;;;;;;;17.32;27.40;94197.72;4865121;29;20427;-90
2022/03/25 09:24:04;;;;;;;27.00;10.00;;;;;;;17.29;27.68;94196.69;4834880;29;20041;-89
2022/03/25 09:26:30;;;;;;;32.95;13.52;;;;;;;17.29;26.23;94198.69;4833577;29;20045;-89
2022/03/25 09:28:56;;;;;;;31.35;12.23;;;;;;;17.28;26.21;94194.44;4835546;29;20094;-90
2022/03/25 09:31:22;;;;;;;23.88;11.27;;;;;;;17.27;26.47;94192.94;4849881;29;20069;-90
2022/03/25 09:33:47;;;;;;;22.08;9.80;;;;;;;17.29;27.62;94196.69;4852222;29;20405;-91
2022/03/25 09:36:13;;;;;;;23.88;9.25;;;;;;;17.31;28.80;94194.22;4862251;29;20052;-91
2022/03/25 09:38:39;;;;;;;15.73;9.27;;;;;;;17.32;28.63;94192.25;4878486;29;20037;-91
2022/03/25 09:41:06;;;;;;;18.63;8.35;;;;;;;17.33;28.30;94194.47;4918854;29;20081;-89
2022/03/25 09:43:34;;;;;;;16.60;8.02;;;;;;;17.34;28.75;94197.94;4913143;29;20040;-89
2022/03/25 09:45:59;;;;;;;16.77;7.22;;;;;;;17.33;28.37;94199.94;4906689;29;20041;-91
2022/03/25 09:48:24;;;;;;;14.57;7.78;;;;;;;17.32;28.33;94198.44;4904627;29;20046;-90
2022/03/25 09:50:50;;;;;;;13.93;7.93;;;;;;;17.34;28.28;94187.03;4905400;29;20403;-88
2022/03/25 09:53:15;;;;;;;10.02;6.85;;;;;;;17.35;28.81;94196.72;4908902;29;20407;-91
2022/03/25 09:55:42;;;;;;;13.85;6.35;;;;;;;17.36;28.52;94190.78;4909622;29;20422;-91
2022/03/25 09:58:08;;;;;;;11.45;5.90;;;;;;;17.35;28.87;94188.53;4907799;29;20044;-89
2022/03/25 10:00:35;;;;;;;12.48;6.60;;;;;;;17.35;29.06;94196.72;4923262;29;20066;-90
2022/03/25 10:03:01;;;;;;;11.68;6.13;;;;;;;17.37;28.41;94196.97;4907747;29;20040;-90
2022/03/25 10:05:26;;;;;;;10.90;6.80;;;;;;;17.37;28.69;94192.28;4905785;29;20104;-90
2022/03/25 10:07:56;;;;;;;9.10;5.38;;;;;;;17.37;28.50;94188.78;4905676;29;20044;-89
2022/03/25 10:10:23;;;;;;;9.48;5.47;;;;;;;17.37;29.04;94197.72;4920589;29;20047;-90
2022/03/25 10:13:00;;;;;;;12.38;5.55;;;;;;;17.37;28.58;94188.78;4905890;29;20039;-90
2022/03/25 10:15:27;;;;;;;10.68;5.63;;;;;;;17.37;28.82;94186.81;4920931;29;20044;-89
2022/03/25 10:18:07;;;;;;;8.65;4.82;;;;;;;17.37;28.67;94184.06;4904830;29;20052;-89
2022/03/25 10:20:37;;;;;;;9.57;5.10;;;;;;;17.38;28.96;94180.09;4920504;29;20514;-90
2022/03/25 10:23:14;;;;;;;6.90;5.15;;;;;;;17.38;28.52;94180.09;4901633;29;20039;-90
2022/03/25 10:25:45;;;;;;;10.57;6.00;;;;;;;17.38;27.98;94180.09;4886856;29;20071;-89
2022/03/25 10:28:23;;;;;;;12.68;4.53;;;;;;;17.36;28.99;94179.84;4885138;29;20040;-89
2022/03/25 10:30:51;;;;;;;12.43;4.88;;;;;;;17.38;29.08;94180.09;4902858;29;20044;-90
2022/03/25 10:33:26;;;;;;;7.00;3.85;;;;;;;17.37;28.46;94177.84;4900890;29;20040;-89
2022/03/25 10:35:55;;;;;;;5.40;3.67;;;;;;;17.39;28.64;94176.13;4902971;29;20048;-89
2022/03/25 10:38:21;;;;;;;7.90;4.30;;;;;;;17.40;28.07;94163.22;4900172;29;20056;-90
2022/03/25 10:40:57;;;;;;;7.35;4.22;;;;;;;17.39;29.18;94180.84;4885273;29;20033;-91
2022/03/25 10:43:24;;;;;;;7.97;3.80;;;;;;;17.40;28.27;94174.91;4910942;29;20098;-88
2022/03/25 10:45:49;;;;;;;6.05;4.05;;;;;;;17.41;28.47;94170.19;4905341;29;20036;-89
2022/03/25 10:48:19;;;;;;;10.25;4.10;;;;;;;17.40;29.12;94168.69;4905332;29;20047;-89
2022/03/25 10:51:05;;;;;;;6.15;4.00;;;;;;;17.40;28.67;94177.63;4905481;29;20036;-89
2022/03/25 10:53:33;;;;;;;4.70;3.35;;;;;;;17.38;29.39;94169.19;4902212;29;20047;-91
2022/03/25 10:56:00;;;;;;;5.07;3.70;;;;;;;17.39;28.86;94178.88;4902382;29;20040;-90
2022/03/25 10:58:25;;;;;;;7.05;3.90;;;;;;;17.41;28.22;94179.13;4886274;29;20111;-89
2022/03/25 11:00:51;;;;;;;5.97;3.90;;;;;;;17.41;28.65;94167.47;4886028;29;20040;-90
2022/03/25 11:03:17;;;;;;;5.53;3.80;;;;;;;17.39;28.71;94162.47;4884491;29;20052;-90
2022/03/25 11:05:45;;;;;;;6.10;3.35;;;;;;;17.40;29.25;94166.72;4887272;29;20041;-91
2022/03/25 11:08:11;;;;;;;5.05;3.42;;;;;;;17.41;28.50;94165.47;4885257;29;20045;-91
2022/03/25 11:10:36;;;;;;;4.97;3.30;;;;;;;17.41;28.78;94162.00;4885366;29;20096;-91
2022/03/25 11:13:03;;;;;;;5.80;3.35;;;;;;;17.40;29.23;94161.25;4884492;29;20071;-91
2022/03/25 11:15:29;;;;;;;6.55;3.85;;;;;;;17.40;29.12;94163.97;4886145;29;20497;-90
2022/03/25 11:17:54;;;;;;;5.70;3.42;;;;;;;17.43;28.22;94165.00;4884201;29;20139;-90
2022/03/25 11:20:21;;;;;;;5.40;3.03;;;;;;;17.43;28.21;94165.00;4883870;29;20404;-90
2022/03/25 11:23:08;;;;;;;7.00;4.20;;;;;;;17.41;29.00;94156.53;4886861;29;20036;-91
2022/03/25 11:25:38;;;;;;;4.82;3.20;;;;;;;17.42;28.91;94163.50;4918477;29;20366;-91